Nearby METAR Reports



KADS - Dallas/Addison, Texas, USA
Distance from station: SSW 10mi, 16km
Updated: Sun, 29-Mar-2020 11:35pm CDT
Mostly cloudy
Mostly cloudy
 Wind from E
Wind: E 3 mph , 6 km/h
Temperature: 64°F , 18°C
Dew Point: 48°F , 9°C
Humidity: 56%
Barometer: 30.15 inHg , 1021 hPa
Clouds: Mostly cloudy
Visibility: 10 miles , 16 km
Cloud details: Mostly cloudy 11000 ft
2020/03/30 04:35 KADS 300435Z AUTO 10003KT 10SM BKN110 18/09 A3015 RMK AO2 T01770089
KTKI - Mckinney, Texas, USA
Distance from station: ENE 11mi, 18km
Updated: Sun, 29-Mar-2020 10:53pm CDT
Overcast
Overcast
 Wind from ESE
Wind: ESE 3 mph , 6 km/h
Temperature: 61°F , 16°C
Dew Point: 50°F , 10°C
Humidity: 68%
Barometer: 30.15 inHg , 1021 hPa
Clouds: Overcast
Visibility: 10 miles , 16 km
Cloud details: Overcast 11000 ft
2020/03/30 03:53 KTKI 300353Z AUTO 11003KT 10SM OVC110 16/10 A3015 RMK AO2 RAB0255E09B27E36 SLP213 P0000 T01610100
 
KDAL - Dallas/Love Fld, Texas, USA
Distance from station: SSW 18mi, 30km
Updated: Sun, 29-Mar-2020 10:53pm CDT
Overcast
Overcast
 Wind from ESE
Wind: ESE 6 mph , 9 km/h
Temperature: 66°F , 19°C
Dew Point: 48°F , 9°C
Humidity: 52%
Barometer: 30.14 inHg , 1020.7 hPa
Clouds: Overcast
Visibility: 10 miles , 16 km
Cloud details: Mostly cloudy 10000 ft
Overcast 25000 ft
2020/03/30 03:53 KDAL 300353Z 11005KT 10SM BKN100 OVC250 19/09 A3014 RMK AO2 SLP201 T01890089
KDFW - Dallas/Ft Worth, Texas, USA
Distance from station: SW 21mi, 34km
Updated: Sun, 29-Mar-2020 10:53pm CDT
Overcast
Overcast
 Wind from calm
Wind: Calm
Temperature: 64°F , 18°C
Dew Point: 50°F , 10°C
Humidity: 60%
Barometer: 30.13 inHg , 1020.3 hPa
Clouds: Overcast
Visibility: 10 miles , 16 km
Cloud details: Mostly cloudy 10000 ft
Mostly cloudy 17000 ft
Overcast 25000 ft
2020/03/30 03:53 KDFW 300353Z 00000KT 10SM BKN100 BKN170 OVC250 18/10 A3013 RMK AO2 SLP199 T01780100
 
KF46 - Rockwall, Texas, USA
Distance from station: ESE 22mi, 35km
Updated: Sun, 29-Mar-2020 11:35pm CDT
Overcast
Overcast
 Wind from ESE
Wind: ESE 5 mph , 7 km/h
Temperature: 63°F , 17°C
Dew Point: 50°F , 10°C
Humidity: 64%
Barometer: 30.13 inHg , 1020.3 hPa
Clouds: Overcast
Visibility: 10 miles , 16 km
Cloud details: Overcast 11000 ft
2020/03/30 04:35 KF46 300435Z AUTO 12004KT 10SM OVC110 17/10 A3013 RMK AO2 T01670100
KDTO - Denton, Texas, USA
Distance from station: WNW 27mi, 43km
Updated: Sun, 29-Mar-2020 10:53pm CDT
Overcast
Overcast
 Wind from ESE
Wind: ESE 5 mph , 7 km/h
Temperature: 64°F , 18°C
Dew Point: 46°F , 8°C
Humidity: 52%
Barometer: 30.14 inHg , 1020.7 hPa
Clouds: Overcast
Visibility: 10 miles , 16 km
Cloud details: Overcast 10000 ft
2020/03/30 03:53 KDTO 300353Z AUTO 12004KT 10SM OVC100 18/08 A3014 RMK AO2 SLP203 T01780083
 
KHQZ - Mesquite, Texas, USA
Distance from station: SSE 28mi, 44km
Updated: Sun, 29-Mar-2020 11:35pm CDT
Overcast
Overcast
 Wind from ESE
Wind: ESE 3 mph , 6 km/h
Temperature: 61°F , 16°C
Dew Point: 54°F , 12°C
Humidity: 77%
Barometer: 30.13 inHg , 1020.3 hPa
Clouds: Overcast
Visibility: 10 miles , 16 km
Cloud details: Overcast 11000 ft
2020/03/30 04:35 KHQZ 300435Z AUTO 11003KT 10SM OVC110 16/12 A3013 RMK AO1 T01610117
KRBD - Dallas/Redbird, Texas, USA
Distance from station: SSW 30mi, 48km
Updated: Sun, 29-Mar-2020 10:53pm CDT
Overcast
Overcast
 Wind from calm
Wind: Calm
Temperature: 64°F , 18°C
Dew Point: 50°F , 10°C
Humidity: 60%
Barometer: 30.13 inHg , 1020.3 hPa
Clouds: Overcast
Visibility: 10 miles , 16 km
Cloud details: Overcast 10000 ft
2020/03/30 03:53 KRBD 300353Z AUTO 00000KT 10SM OVC100 18/10 A3013 RMK AO2 SLP200 T01780100
 
KGPM - Grand Prairie, Texas, USA
Distance from station: SSW 33mi, 53km
Updated: Sun, 29-Mar-2020 11:35pm CDT
Clear
Clear
 Wind from calm
Wind: Calm
Temperature: 63°F , 17°C
Dew Point: 48°F , 9°C
Humidity: 59%
Barometer: 30.14 inHg , 1020.7 hPa
Clouds: Clear
Visibility: 10 miles , 16 km
2020/03/30 04:35 KGPM 300435Z AUTO 00000KT 10SM CLR 17/09 A3014 RMK AO2 T01670091
KAFW - Ft Worth/Allianc, Texas, USA
Distance from station: WSW 34mi, 55km
Updated: Sun, 29-Mar-2020 10:53pm CDT
Overcast
Overcast
 Wind from SE
Wind: SE 7 mph , 11 km/h
Temperature: 63°F , 17°C
Dew Point: 48°F , 9°C
Humidity: 59%
Barometer: 30.13 inHg , 1020.3 hPa
Clouds: Overcast
Visibility: 10 miles , 16 km
Cloud details: Mostly cloudy 9500 ft
Overcast 17000 ft
2020/03/30 03:53 KAFW 300353Z 13006KT 10SM BKN095 OVC170 17/09 A3013 RMK AO2 SLP198 T01720094 $
 
KLNC - Lancaster, Texas, USA
Distance from station: S 36mi, 58km
Updated: Sun, 29-Mar-2020 11:35pm CDT
Mostly cloudy
Mostly cloudy
 Wind from calm
Wind: Calm
Temperature: 61°F , 16°C
Dew Point: 52°F , 11°C
Humidity: 72%
Barometer: 30.14 inHg , 1020.7 hPa
Clouds: Mostly cloudy
Visibility: 10 miles , 16 km
Cloud details: Mostly cloudy 11000 ft
2020/03/30 04:35 KLNC 300435Z AUTO 00000KT 10SM BKN110 16/11 A3014 RMK AO2 T01620111
KGKY - Arlington, Texas, USA
Distance from station: SSW 36mi, 59km
Updated: Sun, 29-Mar-2020 10:53pm CDT
Overcast
Overcast
 Wind from NE
Wind: NE 3 mph , 6 km/h
Temperature: 63°F , 17°C
Dew Point: 52°F , 11°C
Humidity: 68%
Barometer: 30.14 inHg , 1020.7 hPa
Clouds: Overcast
Visibility: 10 miles , 16 km
Cloud details: Mostly cloudy 10000 ft
Overcast 12000 ft
2020/03/30 03:53 KGKY 300353Z AUTO 04003KT 10SM BKN100 OVC120 17/11 A3014 RMK AO2 SLP200 T01670111
 
KTRL - Terrell, Texas, USA
Distance from station: SE 39mi, 63km
Updated: Sun, 29-Mar-2020 10:53pm CDT
Overcast
Overcast
 Wind from ENE
Wind: ENE 3 mph , 6 km/h
Temperature: 61°F , 16°C
Dew Point: 54°F , 12°C
Humidity: 77%
Barometer: 30.15 inHg , 1021 hPa
Clouds: Overcast
Visibility: 10 miles , 16 km
Cloud details: Overcast 11000 ft
2020/03/30 03:53 KTRL 300353Z AUTO 07003KT 10SM OVC110 16/12 A3015 RMK AO2 SLP205 T01610117
KGVT - Greenville/Major, Texas, USA
Distance from station: E 40mi, 64km
Updated: Sun, 29-Mar-2020 11:20pm CDT
Mostly cloudy
Mostly cloudy
 Wind from calm
Wind: Calm
Temperature: 63°F , 17°C
Dew Point: 52°F , 11°C
Humidity: 68%
Barometer: 30.15 inHg , 1021 hPa
Clouds: Mostly cloudy
Visibility: 10 miles , 16 km
Cloud details: Mostly cloudy 11000 ft
2020/03/30 04:20 KGVT 300420Z AUTO 00000KT 10SM BKN110 17/11 A3015 RMK AO2
 
KFTW - Fort Worth, Texas, USA
Distance from station: WSW 40mi, 65km
Updated: Sun, 29-Mar-2020 10:53pm CDT
Overcast
Overcast
 Wind from E
Wind: E 7 mph , 11 km/h
Temperature: 63°F , 17°C
Dew Point: 48°F , 9°C
Humidity: 59%
Barometer: 30.12 inHg , 1020 hPa
Clouds: Overcast
Visibility: 10 miles , 16 km
Cloud details: Mostly cloudy 9000 ft
Overcast 11000 ft
2020/03/30 03:53 KFTW 300353Z 10006KT 10SM BKN090 OVC110 17/09 A3012 RMK AO2 SLP196 T01670094
KGYI - Sherman/Denison, Texas, USA
Distance from station: N 43mi, 69km
Updated: Sun, 29-Mar-2020 11:35pm CDT
Mostly cloudy
Mostly cloudy
 Wind from SE
Wind: SE 7 mph , 11 km/h
Temperature: 63°F , 17°C
Dew Point: 46°F , 8°C
Humidity: 56%
Barometer: 30.16 inHg , 1021.3 hPa
Clouds: Mostly cloudy
Visibility: 10 miles , 16 km
Cloud details: Mostly cloudy 11000 ft
2020/03/30 04:35 KGYI 300435Z AUTO 13006KT 10SM BKN110 17/08 A3016 RMK AO2 T01700076
 
KNFW - Fort Worth Nas, Texas, USA
Distance from station: WSW 45mi, 73km
Updated: Sun, 29-Mar-2020 10:52pm CDT
Overcast
Overcast
 Wind from ESE
Wind: ESE 8 mph , 13 km/h
Temperature: 66°F , 19°C
Dew Point: 48°F , 9°C
Humidity: 52%
Barometer: 30.13 inHg , 1020.3 hPa
Clouds: Overcast
Visibility: 10 miles , 16 km
Cloud details: Overcast 10000 ft
2020/03/30 03:52 KNFW 300352Z AUTO 12007KT 10SM OVC100 19/09 A3013 RMK AO2 SLP186 T01890089 VISNO N $
KGLE - Gainesville, Texas, USA
Distance from station: NW 46mi, 74km
Updated: Sun, 29-Mar-2020 11:35pm CDT
Mostly cloudy
Mostly cloudy
 Wind from SE
Wind: SE 5 mph , 7 km/h
Temperature: 59°F , 15°C
Dew Point: 46°F , 8°C
Humidity: 63%
Barometer: 30.15 inHg , 1021 hPa
Clouds: Mostly cloudy
Visibility: 10 miles , 16 km
Cloud details: Mostly cloudy 10000 ft
2020/03/30 04:35 KGLE 300435Z AUTO 13004KT 10SM BKN100 15/08 A3015 RMK AO2 T01520075
 
KJWY - Midlothian/Wax, Texas, USA
Distance from station: SSW 46mi, 74km
Updated: Sun, 29-Mar-2020 11:35pm CDT
Overcast
Overcast
 Wind from calm
Wind: Calm
Temperature: 61°F , 16°C
Dew Point: 52°F , 11°C
Humidity: 72%
Barometer: 30.14 inHg , 1020.7 hPa
Clouds: Overcast
Visibility: 10 miles , 16 km
Cloud details: Overcast 9000 ft
2020/03/30 04:35 KJWY 300435Z AUTO 00000KT 10SM OVC090 16/11 A3014 RMK AO2 T01620108
KFWS - Fort Worth/88d, Texas, USA
Distance from station: SW 49mi, 79km
Updated: Sun, 29-Mar-2020 11:35pm CDT
Overcast
Overcast
 Wind from calm
Wind: Calm
Temperature: 59°F , 15°C
Dew Point: 52°F , 11°C
Humidity: 77%
Barometer: 30.14 inHg , 1020.7 hPa
Clouds: Overcast
Visibility: 1/4 mile , 0.4 km
Cloud details: Overcast 9500 ft
2020/03/30 04:35 KFWS 300435Z AUTO 00000KT 1/4SM OVC095 15/11 A3014 RMK AO2 T01530112 PWINO